Time;durP1;ratioP1;P1;durP2;ratioP2;P2;SDS_P1;SDS_P2;PMS_P1;PMS_P2;Temp;Humidity;BMP_temperature;BMP_pressure;BME280_temperature;BME280_humidity;BME280_pressure;Samples;Min_cycle;Max_cycle;Signal;HPM_P1;HPM_P2
2022/01/31 00:01:01;;;;;;;17.60;3.35;;;;;;;5.78;44.50;100415.06;18432109;32;20106;-66
2022/01/31 00:11:06;;;;;;;12.32;2.70;;;;;;;5.77;44.46;100406.44;18432703;32;20097;-66
2022/01/31 00:21:10;;;;;;;8.73;1.90;;;;;;;5.76;44.68;100383.09;18431640;32;20384;-66
2022/01/31 00:31:14;;;;;;;14.00;3.10;;;;;;;5.55;44.10;100345.63;18431283;32;20085;-67
2022/01/31 00:41:18;;;;;;;13.30;2.60;;;;;;;5.72;44.24;100352.81;18430839;32;20101;-66
2022/01/31 00:51:22;;;;;;;15.75;2.80;;;;;;;5.61;44.25;100376.81;18430141;32;20152;-66
2022/01/31 01:01:25;;;;;;;11.95;2.83;;;;;;;5.57;44.23;100390.53;18429692;32;20097;-67
2022/01/31 01:11:32;;;;;;;13.27;2.40;;;;;;;5.67;43.71;100394.16;18429098;32;20089;-65
2022/01/31 01:21:35;;;;;;;13.30;2.30;;;;;;;5.28;44.61;100375.31;18428407;32;20101;-68
2022/01/31 01:31:41;;;;;;;12.85;3.10;;;;;;;5.45;44.37;100372.19;18435157;32;20460;-67
2022/01/31 01:41:45;;;;;;;12.00;3.55;;;;;;;5.62;44.35;100356.94;18436464;32;20093;-67
2022/01/31 01:51:50;;;;;;;15.18;2.83;;;;;;;5.57;43.68;100348.25;18436253;32;20093;-67
2022/01/31 02:01:53;;;;;;;5.95;2.72;;;;;;;5.31;44.41;100341.75;18435881;32;20475;-66
2022/01/31 02:11:59;;;;;;;14.52;3.00;;;;;;;5.54;43.22;100323.16;18435755;32;20093;-66
2022/01/31 02:22:04;;;;;;;11.98;2.75;;;;;;;5.55;43.03;100338.72;18435350;32;20085;-66
2022/01/31 02:32:08;;;;;;;15.63;3.08;;;;;;;5.45;43.02;100329.03;18435025;32;20176;-67
2022/01/31 02:42:13;;;;;;;16.45;2.97;;;;;;;5.78;42.21;100324.41;18434488;32;20128;-66
2022/01/31 02:52:18;;;;;;;11.43;2.42;;;;;;;5.38;42.64;100298.72;18434106;32;20154;-67
2022/01/31 03:02:22;;;;;;;16.00;2.85;;;;;;;5.79;41.81;100295.94;18434393;32;20107;-66
2022/01/31 03:12:26;;;;;;;13.75;3.35;;;;;;;5.52;42.27;100289.47;18434598;32;20425;-67
2022/01/31 03:22:30;;;;;;;15.93;3.15;;;;;;;5.64;42.93;100273.25;18433433;32;20088;-67
2022/01/31 03:32:33;;;;;;;12.20;2.75;;;;;;;5.34;43.85;100263.25;18433292;32;20439;-67
2022/01/31 03:42:39;;;;;;;11.30;2.65;;;;;;;5.41;43.48;100257.34;18433070;32;20104;-67
2022/01/31 03:52:43;;;;;;;11.93;2.97;;;;;;;5.21;44.17;100280.28;18431682;32;20089;-66
2022/01/31 04:02:47;;;;;;;11.65;2.87;;;;;;;5.39;43.58;100278.03;18432405;32;20101;-67
2022/01/31 04:12:51;;;;;;;11.02;2.75;;;;;;;5.54;43.61;100258.41;18431991;32;20092;-67
2022/01/31 04:22:59;;;;;;;14.80;4.30;;;;;;;5.20;43.60;100242.31;18431594;32;20101;-67
2022/01/31 04:33:02;;;;;;;15.52;3.17;;;;;;;5.64;41.89;100238.69;18431214;32;20085;-67
2022/01/31 04:43:06;;;;;;;10.18;3.22;;;;;;;5.79;42.42;100231.19;18430642;32;20112;-67
2022/01/31 04:53:10;;;;;;;14.40;2.83;;;;;;;6.03;41.31;100224.66;18431102;32;20096;-67
2022/01/31 05:03:17;;;;;;;13.05;3.45;;;;;;;5.68;40.81;100223.22;18434484;32;20143;-67
2022/01/31 05:13:21;;;;;;;10.93;2.62;;;;;;;5.78;42.27;100200.06;18437355;32;20420;-66
2022/01/31 05:23:25;;;;;;;15.48;4.87;;;;;;;5.86;40.41;100198.44;18437295;32;20137;-67
2022/01/31 05:33:28;;;;;;;11.07;2.80;;;;;;;6.08;40.55;100193.59;18436786;32;20089;-66
2022/01/31 05:43:33;;;;;;;13.00;2.60;;;;;;;5.95;39.63;100169.22;18436421;32;20097;-67
2022/01/31 05:53:36;;;;;;;11.55;3.20;;;;;;;6.01;39.35;100112.28;18435810;32;20103;-66
2022/01/31 06:03:41;;;;;;;13.13;3.72;;;;;;;5.84;39.72;100145.75;18436906;32;20403;-67
2022/01/31 06:13:47;;;;;;;16.12;5.65;;;;;;;5.79;39.80;100124.13;18434911;32;20093;-66
2022/01/31 06:23:51;;;;;;;12.35;3.15;;;;;;;6.01;39.62;100122.63;18435491;32;20112;-67
2022/01/31 06:33:54;;;;;;;14.68;4.30;;;;;;;6.07;39.97;100117.56;18435097;32;20118;-66
2022/01/31 06:43:59;;;;;;;14.15;3.60;;;;;;;6.00;39.87;100125.22;18434346;32;20388;-67
2022/01/31 06:54:02;;;;;;;12.50;3.42;;;;;;;6.14;39.75;100102.94;18433815;32;20088;-67
2022/01/31 07:04:07;;;;;;;9.75;2.85;;;;;;;6.24;40.24;100093.56;18434128;32;20092;-67
2022/01/31 07:14:29;;;;;;;11.70;2.70;;;;;;;5.77;40.84;100080.06;18433884;32;20120;-67
2022/01/31 07:24:45;;;;;;;13.80;3.17;;;;;;;5.95;40.76;100087.16;18432457;32;20081;-66
2022/01/31 07:34:52;;;;;;;14.52;3.33;;;;;;;5.89;40.74;100066.38;18433002;32;20099;-66
2022/01/31 07:44:57;;;;;;;13.98;3.70;;;;;;;5.82;41.60;100039.50;18432464;32;20123;-67
2022/01/31 07:55:10;;;;;;;15.65;4.03;;;;;;;6.22;41.08;100049.47;18432621;32;20186;-67
2022/01/31 08:05:21;;;;;;;19.33;4.32;;;;;;;6.87;39.54;100049.16;18431279;32;20121;-66
2022/01/31 08:15:27;;;;;;;9.50;3.75;;;;;;;6.89;40.33;100034.50;18432278;32;20116;-67
2022/01/31 08:25:35;;;;;;;14.73;4.40;;;;;;;7.22;39.45;100003.53;18432505;32;20374;-68
2022/01/31 08:35:48;;;;;;;14.43;3.65;;;;;;;7.19;39.56;99999.19;18430782;32;20089;-66
2022/01/31 08:45:55;;;;;;;14.23;3.87;;;;;;;7.52;38.16;99996.75;18430791;32;20369;-67
2022/01/31 08:56:01;;;;;;;15.05;4.93;;;;;;;7.51;38.02;99979.44;18423590;32;193253;-68
2022/01/31 09:06:06;;;;;;;12.60;3.53;;;;;;;7.55;38.88;99968.16;18429586;32;20113;-67
2022/01/31 09:16:10;;;;;;;19.55;3.90;;;;;;;7.86;37.20;99950.03;18429320;32;20107;-67
2022/01/31 09:26:14;;;;;;;18.15;4.35;;;;;;;8.38;36.64;99953.56;18428287;32;20232;-68
2022/01/31 09:36:17;;;;;;;18.05;4.80;;;;;;;8.88;35.81;99958.72;18427734;32;20150;-67
2022/01/31 09:46:47;;;;;;;15.27;3.83;;;;;;;8.57;36.86;99924.97;18429929;32;20093;-67
2022/01/31 09:56:50;;;;;;;15.18;3.15;;;;;;;8.39;36.73;99908.47;18435669;32;20108;-68
2022/01/31 10:06:56;;;;;;;16.02;5.18;;;;;;;8.47;36.76;99880.72;18435525;32;20093;-67
2022/01/31 10:17:00;;;;;;;17.08;4.65;;;;;;;8.56;36.82;99861.66;18436467;32;20107;-67
2022/01/31 10:27:28;;;;;;;9.55;4.03;;;;;;;8.36;37.13;99846.06;18435253;32;20132;-67
2022/01/31 10:37:34;;;;;;;11.68;3.50;;;;;;;8.43;37.38;99824.34;18435002;32;20132;-67
2022/01/31 10:58:03;;;;;;;;;;;;;;;8.28;37.50;99780.22;18434279;32;20089;-67
2022/01/31 11:08:17;;;;;;;14.65;5.75;;;;;;;8.91;36.09;99754.81;18434501;32;19998;-67
2022/01/31 11:18:21;;;;;;;11.23;3.25;;;;;;;8.93;36.49;99724.44;18433962;32;20428;-67
2022/01/31 11:28:28;;;;;;;8.30;2.35;;;;;;;8.94;36.63;99701.00;18433306;32;20139;-68
2022/01/31 11:38:33;;;;;;;10.68;2.80;;;;;;;9.26;35.96;99679.06;18433156;32;20110;-67
2022/01/31 11:48:38;;;;;;;12.70;2.85;;;;;;;8.95;35.72;99658.47;18432705;32;20092;-68
2022/01/31 11:58:45;;;;;;;9.23;2.58;;;;;;;8.84;36.13;99637.72;18432685;32;20101;-68
2022/01/31 12:08:50;;;;;;;10.98;3.33;;;;;;;8.74;35.84;99610.91;18431604;32;20081;-68
2022/01/31 12:19:17;;;;;;;9.63;2.87;;;;;;;9.24;36.23;99617.44;18431902;32;20105;-69
2022/01/31 12:29:23;;;;;;;10.48;2.90;;;;;;;9.11;35.60;99590.69;18431406;32;20122;-67
2022/01/31 12:40:04;;;;;;;11.18;2.97;;;;;;;9.27;35.14;99580.97;18431037;32;20354;-67
2022/01/31 12:50:22;;;;;;;15.63;2.70;;;;;;;8.80;35.81;99567.50;18430640;32;20400;-67
2022/01/31 13:00:34;;;;;;;9.50;2.78;;;;;;;8.36;37.92;99564.31;18429527;32;20104;-68
2022/01/31 13:10:59;;;;;;;10.57;3.37;;;;;;;8.61;37.23;99544.22;18430207;32;20112;-67
2022/01/31 13:21:04;;;;;;;16.52;3.15;;;;;;;8.50;37.26;99543.41;18431043;32;20092;-67
2022/01/31 13:31:10;;;;;;;9.30;2.75;;;;;;;8.47;37.62;99528.69;18436871;32;20092;-67
2022/01/31 13:41:18;;;;;;;10.02;3.45;;;;;;;8.24;38.18;99518.44;18436663;32;20097;-68
2022/01/31 13:51:29;;;;;;;16.85;3.95;;;;;;;8.65;37.55;99493.91;18436311;32;20353;-67
2022/01/31 14:01:33;;;;;;;16.67;3.70;;;;;;;8.45;37.90;99487.09;18434242;32;20451;-68
2022/01/31 14:11:40;;;;;;;17.40;4.00;;;;;;;8.91;37.41;99468.50;18435814;32;20089;-67
2022/01/31 14:21:47;;;;;;;13.25;4.18;;;;;;;8.69;37.91;99453.97;18432686;32;20093;-68
2022/01/31 14:31:54;;;;;;;12.13;4.05;;;;;;;9.04;37.29;99459.66;18434738;32;20126;-68
2022/01/31 14:42:36;;;;;;;9.35;3.37;;;;;;;8.69;37.84;99448.75;18435013;32;20110;-67
2022/01/31 14:52:41;;;;;;;11.52;3.28;;;;;;;8.38;38.80;99448.12;18434332;32;20089;-66
2022/01/31 15:02:44;;;;;;;9.68;3.03;;;;;;;7.72;38.69;99442.56;18434406;32;20452;-67
2022/01/31 15:12:49;;;;;;;8.93;3.72;;;;;;;7.78;39.01;99430.37;18434325;32;20129;-67
2022/01/31 15:22:55;;;;;;;12.18;2.80;;;;;;;7.20;42.82;99447.09;18434023;32;20162;-67
2022/01/31 15:33:00;;;;;;;8.20;2.72;;;;;;;7.16;45.42;99468.78;18433433;32;20093;-67
2022/01/31 15:43:05;;;;;;;7.82;2.50;;;;;;;7.04;46.24;99467.06;18432233;32;20073;-67
2022/01/31 15:53:09;;;;;;;12.13;3.85;;;;;;;6.91;47.67;99458.44;18432631;32;20119;-68
2022/01/31 16:03:14;;;;;;;8.45;2.75;;;;;;;6.82;48.53;99474.03;18432818;32;20112;-66
2022/01/31 16:13:21;;;;;;;11.50;3.67;;;;;;;6.53;49.65;99481.00;18432271;32;20107;-67
2022/01/31 16:23:27;;;;;;;12.52;3.58;;;;;;;6.68;49.41;99482.72;18431789;32;20099;-67
2022/01/31 16:33:31;;;;;;;24.70;9.55;;;;;;;6.61;49.67;99478.38;18431473;32;20107;-67
2022/01/31 16:43:34;;;;;;;34.53;14.45;;;;;;;6.48;49.89;99468.03;18431006;32;20113;-68
2022/01/31 16:53:39;;;;;;;14.35;3.92;;;;;;;6.61;49.51;99481.84;18429716;32;20120;-66
2022/01/31 17:03:42;;;;;;;12.35;4.00;;;;;;;6.31;50.25;99491.37;18429820;32;20783;-67
2022/01/31 17:13:47;;;;;;;12.77;4.43;;;;;;;6.14;51.29;99496.50;18429448;32;20100;-67
2022/01/31 17:23:50;;;;;;;9.75;3.87;;;;;;;6.22;52.91;99499.97;18428661;32;20141;-67
2022/01/31 17:33:55;;;;;;;14.57;4.70;;;;;;;5.94;58.30;99502.50;18428029;32;20089;-68
2022/01/31 17:44:15;;;;;;;17.75;5.18;;;;;;;5.30;62.28;99482.44;18428748;32;20105;-68
2022/01/31 17:54:20;;;;;;;18.12;6.60;;;;;;;5.45;62.07;99479.03;18426553;32;20141;-68
2022/01/31 18:04:24;;;;;;;44.10;22.83;;;;;;;4.98;64.55;99461.59;18426205;32;20104;-67
2022/01/31 18:14:28;;;;;;;31.77;12.93;;;;;;;5.10;64.27;99453.00;18434590;32;20143;-68
2022/01/31 18:24:32;;;;;;;49.08;22.13;;;;;;;5.06;64.03;99451.28;18435043;32;20097;-68
2022/01/31 18:34:37;;;;;;;33.17;14.38;;;;;;;4.91;64.68;99443.44;18434641;32;20093;-68
2022/01/31 18:44:41;;;;;;;23.30;10.15;;;;;;;4.75;65.22;99443.34;18434688;32;20107;-68
2022/01/31 18:54:45;;;;;;;22.70;10.48;;;;;;;5.20;63.24;99445.28;18433981;32;20138;-67
2022/01/31 19:04:48;;;;;;;28.35;11.02;;;;;;;4.82;64.94;99455.44;18434430;32;20519;-67
2022/01/31 19:25:14;;;;;;;33.63;14.32;;;;;;;4.68;65.35;99449.34;18433323;32;20162;-67
2022/01/31 19:35:18;;;;;;;33.90;15.48;;;;;;;5.06;63.63;99447.81;18433182;32;20123;-67
2022/01/31 19:45:22;;;;;;;31.30;14.80;;;;;;;4.86;64.74;99445.97;18433019;32;20475;-68
2022/01/31 19:55:32;;;;;;;21.92;10.38;;;;;;;4.81;64.79;99458.88;18417461;32;20107;-68
2022/01/31 20:05:35;;;;;;;27.30;12.35;;;;;;;4.66;65.46;99471.72;18432349;32;20120;-67
2022/01/31 20:15:40;;;;;;;34.92;15.35;;;;;;;4.63;65.78;99484.63;18432149;32;20151;-67
2022/01/31 20:25:49;;;;;;;31.67;14.43;;;;;;;4.69;65.95;99480.34;18433225;32;20112;-68
2022/01/31 20:35:54;;;;;;;32.47;13.48;;;;;;;4.58;66.64;99485.47;18430586;32;20084;-67
2022/01/31 20:46:19;;;;;;;27.08;11.70;;;;;;;4.43;69.12;99472.41;18432028;32;20081;-68
2022/01/31 20:56:25;;;;;;;25.80;13.85;;;;;;;4.44;68.81;99474.13;18429515;32;20101;-68
2022/01/31 21:06:28;;;;;;;25.12;13.02;;;;;;;4.63;67.72;99482.03;18429594;32;20146;-68
2022/01/31 21:16:33;;;;;;;26.75;14.23;;;;;;;4.20;68.93;99493.75;18429094;32;20124;-68
2022/01/31 21:26:37;;;;;;;36.67;17.48;;;;;;;3.98;70.16;99496.16;18428257;32;20101;-68
2022/01/31 21:36:41;;;;;;;38.88;21.37;;;;;;;3.79;70.54;99489.03;18427893;32;20107;-68
2022/01/31 21:46:44;;;;;;;39.28;20.67;;;;;;;3.67;71.89;99482.03;18433459;32;20096;-68
2022/01/31 21:56:49;;;;;;;37.75;19.73;;;;;;;3.94;70.68;99491.78;18435607;32;20137;-68
2022/01/31 22:06:52;;;;;;;36.28;17.70;;;;;;;3.64;71.60;99490.63;18436045;32;20428;-68
2022/01/31 22:16:57;;;;;;;36.58;19.50;;;;;;;3.56;71.43;99492.22;18435885;32;20437;-67
2022/01/31 22:27:01;;;;;;;35.28;17.98;;;;;;;3.79;71.08;99492.50;18435340;32;20443;-68
2022/01/31 22:37:07;;;;;;;28.73;15.35;;;;;;;3.71;71.53;99515.66;18434811;32;20092;-68
2022/01/31 22:47:10;;;;;;;40.30;21.15;;;;;;;3.99;69.78;99528.00;18434631;32;20089;-68
2022/01/31 22:57:14;;;;;;;25.55;13.13;;;;;;;3.92;70.85;99524.47;18433395;32;20158;-68
2022/01/31 23:07:18;;;;;;;29.98;15.02;;;;;;;3.99;70.64;99528.87;18434060;32;20740;-68
2022/01/31 23:17:29;;;;;;;34.22;17.52;;;;;;;3.79;71.18;99509.69;18433825;32;20141;-69
